La Clotilde, Argentina
Current Conditions -  °F | °C
As of 7:00 PM on Sunday 21 Dec 2014 (Local Time) from SARE Reporting Station
Broken Clouds Broken Clouds  
Wind Chill: 25°   Ceiling: 1800
Heat Index: 26°   Visibility: 6mi
Dew Point: 21°   Wind: 15mph
Humidity: 78%   Direction: 180°S
Pressure: 29.65"   Gusts: NA
Location:  27.17°S, 60.64°W
Report Text: SARE 212200Z 18013KT 9999 BKN018 SCT100 25/21 Q1004
Loading
Personal Weather Stations






























Interactive Weather Map New forecast layout! Learn more

10-Day Weather Forecast

Advertisements
Track Severe Weather on mobile